createdAt,value
2022-12-25T00:07:38.746Z,6.61
2022-12-25T00:22:40.660Z,6.57
2022-12-25T00:37:42.833Z,6.01
2022-12-25T00:52:44.702Z,6.03
2022-12-25T01:07:46.512Z,5.90
2022-12-25T01:22:48.320Z,5.87
2022-12-25T01:37:53.916Z,5.87
2022-12-25T01:52:57.457Z,5.94
2022-12-25T02:08:04.461Z,6.08
2022-12-25T02:23:34.943Z,5.99
2022-12-25T02:39:01.083Z,5.75
2022-12-25T02:54:29.135Z,5.80
2022-12-25T03:09:57.261Z,5.85
2022-12-25T03:25:17.705Z,5.79
2022-12-25T03:41:09.840Z,6.04
2022-12-25T03:56:31.271Z,5.87
2022-12-25T04:11:53.220Z,5.89
2022-12-25T04:27:16.309Z,6.14
2022-12-25T04:42:18.791Z,6.24
2022-12-25T04:57:20.632Z,6.38
2022-12-25T05:12:22.518Z,6.56
2022-12-25T05:27:24.382Z,6.37
2022-12-25T05:42:26.383Z,6.30
2022-12-25T05:57:32.154Z,6.57
2022-12-25T06:12:33.969Z,6.57
2022-12-25T06:27:35.952Z,6.37
2022-12-25T06:42:38.112Z,6.40
2022-12-25T06:57:39.923Z,6.53
2022-12-25T07:12:41.703Z,6.66
2022-12-25T07:27:43.520Z,6.81
2022-12-25T07:42:45.888Z,6.99
2022-12-25T07:57:47.698Z,7.26
2022-12-25T08:12:49.638Z,7.36
2022-12-25T08:27:51.420Z,7.33
2022-12-25T08:42:56.956Z,7.93
2022-12-25T08:57:58.791Z,8.12
2022-12-25T09:13:00.596Z,7.71
2022-12-25T09:28:02.451Z,7.78
2022-12-25T09:43:04.814Z,7.90
2022-12-25T09:58:13.391Z,8.11
2022-12-25T10:13:45.392Z,8.21
2022-12-25T13:33:19.919Z,10.03
2022-12-25T13:48:23.517Z,9.87
2022-12-25T14:03:41.677Z,9.87
2022-12-25T14:18:55.675Z,9.75
2022-12-25T14:34:00.766Z,9.44
2022-12-25T14:49:21.075Z,9.49
2022-12-25T15:04:24.025Z,9.44
2022-12-25T15:19:36.633Z,9.47
2022-12-25T15:34:39.479Z,9.36
2022-12-25T15:49:42.014Z,9.24
2022-12-25T16:04:44.254Z,9.16
2022-12-25T16:19:46.109Z,9.23
2022-12-25T16:34:49.329Z,9.28
2022-12-25T16:49:51.105Z,9.14
2022-12-25T17:04:52.928Z,9.04
2022-12-25T17:19:54.981Z,9.18
2022-12-25T17:34:57.497Z,9.14
2022-12-25T17:49:59.317Z,9.36
2022-12-25T18:05:01.469Z,9.33
2022-12-25T18:20:07.022Z,9.32
2022-12-25T18:35:10.056Z,9.38
2022-12-25T18:50:12.771Z,9.32
2022-12-25T19:05:15.880Z,9.18
2022-12-25T22:20:35.189Z,9.22
2022-12-25T22:35:36.970Z,9.26
2022-12-25T22:50:38.759Z,9.22
2022-12-25T23:05:40.558Z,8.67
2022-12-25T23:21:01.026Z,8.46
2022-12-25T23:36:02.972Z,8.30
2022-12-25T23:51:06.871Z,8.46
